Terminal Aerodrome Forecast
Issued by NWS Wilmington, OH

Current Version | Previous Version | Graphics & Text | Print | Product List | Glossary On
Versions: 1 2 3 4 5 6 7 8 9 10 11 12 13 14 15 16 17 18 19 20 21
445
FTUS41 KILN 290524
TAFDAY
TAF
KDAY 290524Z 2906/3006 04005KT P6SM SCT160 BKN210
     FM290800 03005KT 5SM BR SCT080
     FM291300 04006KT P6SM SCT040
     FM300000 06006KT P6SM SCT080=

USA.gov is the U.S. government's official web portal to all federal, state and local government web resources and services.